sensor_id;sensor_type;location;lat;lon;timestamp;temperature;humidity
70366;DHT22;57787;48.216;12.396;2023-02-13T00:00:21;2.40;90.00
70366;DHT22;57787;48.216;12.396;2023-02-13T00:02:49;2.30;90.00
70366;DHT22;57787;48.216;12.396;2023-02-13T00:05:17;2.40;90.00
70366;DHT22;57787;48.216;12.396;2023-02-13T00:07:44;2.30;90.10
70366;DHT22;57787;48.216;12.396;2023-02-13T00:10:12;2.30;90.00
70366;DHT22;57787;48.216;12.396;2023-02-13T00:12:40;2.30;90.00
70366;DHT22;57787;48.216;12.396;2023-02-13T00:15:08;2.30;90.10
70366;DHT22;57787;48.216;12.396;2023-02-13T00:17:36;2.30;90.00
70366;DHT22;57787;48.216;12.396;2023-02-13T00:20:03;2.30;90.10
70366;DHT22;57787;48.216;12.396;2023-02-13T00:22:37;2.30;90.10
70366;DHT22;57787;48.216;12.396;2023-02-13T00:25:07;2.30;90.20
70366;DHT22;57787;48.216;12.396;2023-02-13T00:27:35;2.30;90.00
70366;DHT22;57787;48.216;12.396;2023-02-13T00:30:03;2.30;90.10
70366;DHT22;57787;48.216;12.396;2023-02-13T00:32:31;2.30;90.10
70366;DHT22;57787;48.216;12.396;2023-02-13T00:34:58;2.30;90.10
70366;DHT22;57787;48.216;12.396;2023-02-13T00:37:26;2.30;90.00
70366;DHT22;57787;48.216;12.396;2023-02-13T00:39:53;2.30;90.00
70366;DHT22;57787;48.216;12.396;2023-02-13T00:42:22;2.30;90.00
70366;DHT22;57787;48.216;12.396;2023-02-13T00:44:52;2.30;90.10
70366;DHT22;57787;48.216;12.396;2023-02-13T00:47:20;2.20;90.10
70366;DHT22;57787;48.216;12.396;2023-02-13T00:49:48;2.30;90.20
70366;DHT22;57787;48.216;12.396;2023-02-13T00:52:16;2.30;90.20
70366;DHT22;57787;48.216;12.396;2023-02-13T00:54:43;2.30;90.10
70366;DHT22;57787;48.216;12.396;2023-02-13T00:57:11;2.20;90.20
70366;DHT22;57787;48.216;12.396;2023-02-13T00:59:39;2.20;90.20
70366;DHT22;57787;48.216;12.396;2023-02-13T01:02:06;2.30;90.20
70366;DHT22;57787;48.216;12.396;2023-02-13T01:04:34;2.20;90.20
70366;DHT22;57787;48.216;12.396;2023-02-13T01:07:02;2.20;90.10
70366;DHT22;57787;48.216;12.396;2023-02-13T01:09:29;2.20;89.80
70366;DHT22;57787;48.216;12.396;2023-02-13T01:11:57;2.20;89.90
70366;DHT22;57787;48.216;12.396;2023-02-13T01:14:25;2.20;89.80
70366;DHT22;57787;48.216;12.396;2023-02-13T01:16:52;2.20;89.80
70366;DHT22;57787;48.216;12.396;2023-02-13T01:19:20;2.20;89.80
70366;DHT22;57787;48.216;12.396;2023-02-13T01:21:48;2.10;89.80
70366;DHT22;57787;48.216;12.396;2023-02-13T01:24:16;2.10;89.70
70366;DHT22;57787;48.216;12.396;2023-02-13T01:26:44;2.10;89.80
70366;DHT22;57787;48.216;12.396;2023-02-13T01:29:12;2.10;89.90
70366;DHT22;57787;48.216;12.396;2023-02-13T01:31:39;2.10;89.90
70366;DHT22;57787;48.216;12.396;2023-02-13T01:34:07;2.00;89.90
70366;DHT22;57787;48.216;12.396;2023-02-13T01:36:38;2.00;89.80
70366;DHT22;57787;48.216;12.396;2023-02-13T01:39:05;2.00;89.80
70366;DHT22;57787;48.216;12.396;2023-02-13T01:41:33;2.00;89.80
70366;DHT22;57787;48.216;12.396;2023-02-13T01:44:00;2.00;90.00
70366;DHT22;57787;48.216;12.396;2023-02-13T01:46:31;2.00;90.00
70366;DHT22;57787;48.216;12.396;2023-02-13T01:54:26;1.90;89.90
70366;DHT22;57787;48.216;12.396;2023-02-13T01:56:59;1.90;90.00
70366;DHT22;57787;48.216;12.396;2023-02-13T01:59:30;1.90;90.00
70366;DHT22;57787;48.216;12.396;2023-02-13T02:01:59;1.90;90.00
70366;DHT22;57787;48.216;12.396;2023-02-13T02:04:29;1.90;90.00
70366;DHT22;57787;48.216;12.396;2023-02-13T02:07:04;1.90;90.00
70366;DHT22;57787;48.216;12.396;2023-02-13T02:09:34;1.90;90.00
70366;DHT22;57787;48.216;12.396;2023-02-13T02:12:12;1.80;90.00
70366;DHT22;57787;48.216;12.396;2023-02-13T02:14:41;1.80;89.80
70366;DHT22;57787;48.216;12.396;2023-02-13T02:17:09;1.80;89.80
70366;DHT22;57787;48.216;12.396;2023-02-13T02:19:48;1.80;90.10
70366;DHT22;57787;48.216;12.396;2023-02-13T02:22:41;1.70;90.00
70366;DHT22;57787;48.216;12.396;2023-02-13T02:27:52;1.70;90.10
70366;DHT22;57787;48.216;12.396;2023-02-13T02:38:25;1.60;90.00
70366;DHT22;57787;48.216;12.396;2023-02-13T02:41:00;1.60;90.00
70366;DHT22;57787;48.216;12.396;2023-02-13T02:43:44;1.60;89.90
70366;DHT22;57787;48.216;12.396;2023-02-13T02:46:21;1.60;90.10
70366;DHT22;57787;48.216;12.396;2023-02-13T02:49:02;1.60;90.10
70366;DHT22;57787;48.216;12.396;2023-02-13T02:52:05;1.50;90.10
70366;DHT22;57787;48.216;12.396;2023-02-13T02:54:45;1.50;90.20
70366;DHT22;57787;48.216;12.396;2023-02-13T02:57:55;1.50;90.20
70366;DHT22;57787;48.216;12.396;2023-02-13T03:00:44;1.50;90.30
70366;DHT22;57787;48.216;12.396;2023-02-13T03:03:30;1.50;90.30
70366;DHT22;57787;48.216;12.396;2023-02-13T03:06:22;1.50;90.40
70366;DHT22;57787;48.216;12.396;2023-02-13T03:08:52;1.50;90.30
70366;DHT22;57787;48.216;12.396;2023-02-13T03:11:39;1.40;90.20
70366;DHT22;57787;48.216;12.396;2023-02-13T03:14:29;1.50;90.20
70366;DHT22;57787;48.216;12.396;2023-02-13T03:16:56;1.40;90.20
70366;DHT22;57787;48.216;12.396;2023-02-13T03:19:54;1.40;90.10
70366;DHT22;57787;48.216;12.396;2023-02-13T03:36:06;1.40;90.50
70366;DHT22;57787;48.216;12.396;2023-02-13T03:38:59;1.40;90.40
70366;DHT22;57787;48.216;12.396;2023-02-13T03:41:33;1.40;90.20
70366;DHT22;57787;48.216;12.396;2023-02-13T03:44:17;1.30;90.30
70366;DHT22;57787;48.216;12.396;2023-02-13T03:46:50;1.40;90.20
70366;DHT22;57787;48.216;12.396;2023-02-13T03:49:21;1.30;90.00
70366;DHT22;57787;48.216;12.396;2023-02-13T03:52:15;1.30;90.00
70366;DHT22;57787;48.216;12.396;2023-02-13T03:54:51;1.30;90.00
70366;DHT22;57787;48.216;12.396;2023-02-13T03:57:38;1.30;90.10
70366;DHT22;57787;48.216;12.396;2023-02-13T04:00:25;1.30;90.10
70366;DHT22;57787;48.216;12.396;2023-02-13T04:02:59;1.20;90.00
70366;DHT22;57787;48.216;12.396;2023-02-13T04:05:28;1.30;90.10
70366;DHT22;57787;48.216;12.396;2023-02-13T04:07:57;1.20;90.10
70366;DHT22;57787;48.216;12.396;2023-02-13T04:10:25;1.20;90.10
70366;DHT22;57787;48.216;12.396;2023-02-13T04:15:27;1.20;90.00
70366;DHT22;57787;48.216;12.396;2023-02-13T04:20:30;1.20;90.00
70366;DHT22;57787;48.216;12.396;2023-02-13T04:23:03;1.20;90.00
70366;DHT22;57787;48.216;12.396;2023-02-13T04:25:32;1.10;90.00
70366;DHT22;57787;48.216;12.396;2023-02-13T04:28:01;1.20;90.20
70366;DHT22;57787;48.216;12.396;2023-02-13T04:30:28;1.10;90.20
70366;DHT22;57787;48.216;12.396;2023-02-13T04:32:56;1.20;90.30
70366;DHT22;57787;48.216;12.396;2023-02-13T04:35:24;1.20;90.30
70366;DHT22;57787;48.216;12.396;2023-02-13T04:37:52;1.20;90.30
70366;DHT22;57787;48.216;12.396;2023-02-13T04:40:19;1.20;90.30
70366;DHT22;57787;48.216;12.396;2023-02-13T04:42:47;1.20;90.40
70366;DHT22;57787;48.216;12.396;2023-02-13T04:45:15;1.10;90.30
70366;DHT22;57787;48.216;12.396;2023-02-13T04:47:53;1.20;90.30
70366;DHT22;57787;48.216;12.396;2023-02-13T04:50:22;1.20;90.20
70366;DHT22;57787;48.216;12.396;2023-02-13T04:52:54;1.10;89.90
70366;DHT22;57787;48.216;12.396;2023-02-13T04:55:22;1.10;89.90
70366;DHT22;57787;48.216;12.396;2023-02-13T04:57:50;1.10;90.00
70366;DHT22;57787;48.216;12.396;2023-02-13T05:00:19;1.10;90.00
70366;DHT22;57787;48.216;12.396;2023-02-13T05:02:47;1.10;90.00
70366;DHT22;57787;48.216;12.396;2023-02-13T05:05:14;1.10;90.00
70366;DHT22;57787;48.216;12.396;2023-02-13T05:07:43;1.10;89.90
70366;DHT22;57787;48.216;12.396;2023-02-13T05:10:11;1.00;89.90
70366;DHT22;57787;48.216;12.396;2023-02-13T05:12:41;1.00;89.90
70366;DHT22;57787;48.216;12.396;2023-02-13T05:15:10;1.00;89.90
70366;DHT22;57787;48.216;12.396;2023-02-13T05:17:38;1.00;89.80
70366;DHT22;57787;48.216;12.396;2023-02-13T05:20:06;1.00;89.80
70366;DHT22;57787;48.216;12.396;2023-02-13T05:22:33;1.00;89.90
70366;DHT22;57787;48.216;12.396;2023-02-13T05:25:19;1.00;90.00
70366;DHT22;57787;48.216;12.396;2023-02-13T05:27:47;1.00;89.90
70366;DHT22;57787;48.216;12.396;2023-02-13T05:30:15;1.00;89.90
70366;DHT22;57787;48.216;12.396;2023-02-13T05:32:43;0.90;90.00
70366;DHT22;57787;48.216;12.396;2023-02-13T05:35:13;0.90;90.00
70366;DHT22;57787;48.216;12.396;2023-02-13T05:37:41;1.00;90.00
70366;DHT22;57787;48.216;12.396;2023-02-13T05:40:10;1.00;90.00
70366;DHT22;57787;48.216;12.396;2023-02-13T05:42:39;1.00;90.10
70366;DHT22;57787;48.216;12.396;2023-02-13T05:45:06;1.00;90.20
70366;DHT22;57787;48.216;12.396;2023-02-13T05:47:35;0.90;90.00
70366;DHT22;57787;48.216;12.396;2023-02-13T05:50:03;1.00;90.00
70366;DHT22;57787;48.216;12.396;2023-02-13T05:52:31;1.00;89.90
70366;DHT22;57787;48.216;12.396;2023-02-13T05:54:58;1.00;90.00
70366;DHT22;57787;48.216;12.396;2023-02-13T05:57:25;1.00;90.00
70366;DHT22;57787;48.216;12.396;2023-02-13T05:59:53;0.90;90.10
70366;DHT22;57787;48.216;12.396;2023-02-13T06:02:20;1.00;90.10
70366;DHT22;57787;48.216;12.396;2023-02-13T06:04:48;0.90;89.90
70366;DHT22;57787;48.216;12.396;2023-02-13T06:07:16;0.90;90.00
70366;DHT22;57787;48.216;12.396;2023-02-13T06:09:43;0.90;89.80
70366;DHT22;57787;48.216;12.396;2023-02-13T06:12:10;0.90;90.00
70366;DHT22;57787;48.216;12.396;2023-02-13T06:14:38;0.90;90.10
70366;DHT22;57787;48.216;12.396;2023-02-13T06:17:05;0.90;90.10
70366;DHT22;57787;48.216;12.396;2023-02-13T06:19:33;1.00;90.10
70366;DHT22;57787;48.216;12.396;2023-02-13T06:22:01;0.90;90.10
70366;DHT22;57787;48.216;12.396;2023-02-13T06:24:32;0.90;90.20
70366;DHT22;57787;48.216;12.396;2023-02-13T06:26:59;1.00;90.20
70366;DHT22;57787;48.216;12.396;2023-02-13T06:29:28;0.90;90.00
70366;DHT22;57787;48.216;12.396;2023-02-13T06:31:57;0.90;89.90
70366;DHT22;57787;48.216;12.396;2023-02-13T06:34:25;0.90;89.90
70366;DHT22;57787;48.216;12.396;2023-02-13T06:36:53;0.90;89.80
70366;DHT22;57787;48.216;12.396;2023-02-13T06:39:20;0.90;89.70
70366;DHT22;57787;48.216;12.396;2023-02-13T06:41:48;0.90;89.70
70366;DHT22;57787;48.216;12.396;2023-02-13T06:44:16;0.90;89.70
70366;DHT22;57787;48.216;12.396;2023-02-13T06:46:44;0.90;89.70
70366;DHT22;57787;48.216;12.396;2023-02-13T06:49:13;0.90;89.70
70366;DHT22;57787;48.216;12.396;2023-02-13T06:51:40;0.90;89.40
70366;DHT22;57787;48.216;12.396;2023-02-13T06:54:07;0.90;89.60
70366;DHT22;57787;48.216;12.396;2023-02-13T06:56:36;0.90;89.60
70366;DHT22;57787;48.216;12.396;2023-02-13T06:59:04;0.90;89.50
70366;DHT22;57787;48.216;12.396;2023-02-13T07:01:31;0.90;89.70
70366;DHT22;57787;48.216;12.396;2023-02-13T07:04:02;1.00;89.80
70366;DHT22;57787;48.216;12.396;2023-02-13T07:06:29;1.00;89.80
70366;DHT22;57787;48.216;12.396;2023-02-13T07:09:01;1.00;89.70
70366;DHT22;57787;48.216;12.396;2023-02-13T07:11:28;1.00;89.60
70366;DHT22;57787;48.216;12.396;2023-02-13T07:13:56;1.00;89.40
70366;DHT22;57787;48.216;12.396;2023-02-13T07:16:24;1.00;89.40
70366;DHT22;57787;48.216;12.396;2023-02-13T07:18:51;1.00;89.50
70366;DHT22;57787;48.216;12.396;2023-02-13T07:21:19;1.00;89.50
70366;DHT22;57787;48.216;12.396;2023-02-13T07:23:47;1.10;89.70
70366;DHT22;57787;48.216;12.396;2023-02-13T07:26:17;1.00;89.40
70366;DHT22;57787;48.216;12.396;2023-02-13T07:28:46;1.10;89.40
70366;DHT22;57787;48.216;12.396;2023-02-13T07:31:14;1.10;89.10
70366;DHT22;57787;48.216;12.396;2023-02-13T07:33:42;1.10;89.10
70366;DHT22;57787;48.216;12.396;2023-02-13T07:36:10;1.10;89.00
70366;DHT22;57787;48.216;12.396;2023-02-13T07:38:37;1.20;88.80
70366;DHT22;57787;48.216;12.396;2023-02-13T07:41:05;1.20;88.90
70366;DHT22;57787;48.216;12.396;2023-02-13T07:43:33;1.20;88.70
70366;DHT22;57787;48.216;12.396;2023-02-13T07:46:01;1.20;88.80
70366;DHT22;57787;48.216;12.396;2023-02-13T07:48:29;1.30;89.00
70366;DHT22;57787;48.216;12.396;2023-02-13T07:50:59;1.30;88.80
70366;DHT22;57787;48.216;12.396;2023-02-13T07:53:27;1.30;88.70
70366;DHT22;57787;48.216;12.396;2023-02-13T07:55:55;1.40;88.80
70366;DHT22;57787;48.216;12.396;2023-02-13T07:58:23;1.40;88.40
70366;DHT22;57787;48.216;12.396;2023-02-13T08:00:51;1.50;88.50
70366;DHT22;57787;48.216;12.396;2023-02-13T08:03:18;1.50;88.30
70366;DHT22;57787;48.216;12.396;2023-02-13T08:05:48;1.50;88.10
70366;DHT22;57787;48.216;12.396;2023-02-13T08:08:16;1.60;88.20
70366;DHT22;57787;48.216;12.396;2023-02-13T08:10:44;1.60;87.80
70366;DHT22;57787;48.216;12.396;2023-02-13T08:13:30;1.60;88.00
70366;DHT22;57787;48.216;12.396;2023-02-13T08:15:58;1.70;88.00
70366;DHT22;57787;48.216;12.396;2023-02-13T08:18:26;1.70;87.50
70366;DHT22;57787;48.216;12.396;2023-02-13T08:20:53;1.80;88.10
70366;DHT22;57787;48.216;12.396;2023-02-13T08:23:21;1.80;87.70
70366;DHT22;57787;48.216;12.396;2023-02-13T08:25:49;1.90;87.90
70366;DHT22;57787;48.216;12.396;2023-02-13T08:28:16;1.90;87.80
70366;DHT22;57787;48.216;12.396;2023-02-13T08:30:44;2.00;87.60
70366;DHT22;57787;48.216;12.396;2023-02-13T08:33:12;2.00;87.50
70366;DHT22;57787;48.216;12.396;2023-02-13T08:35:39;2.10;87.30
70366;DHT22;57787;48.216;12.396;2023-02-13T08:38:08;2.10;86.60
70366;DHT22;57787;48.216;12.396;2023-02-13T08:40:36;2.10;86.50
70366;DHT22;57787;48.216;12.396;2023-02-13T08:43:04;2.10;86.70
70366;DHT22;57787;48.216;12.396;2023-02-13T08:45:32;2.20;86.40
70366;DHT22;57787;48.216;12.396;2023-02-13T08:48:00;2.20;86.40
70366;DHT22;57787;48.216;12.396;2023-02-13T08:50:30;2.20;86.60
70366;DHT22;57787;48.216;12.396;2023-02-13T08:52:58;2.30;86.30
70366;DHT22;57787;48.216;12.396;2023-02-13T08:55:26;2.30;85.60
70366;DHT22;57787;48.216;12.396;2023-02-13T08:57:54;2.30;86.10
70366;DHT22;57787;48.216;12.396;2023-02-13T09:00:22;2.30;85.00
70366;DHT22;57787;48.216;12.396;2023-02-13T09:02:49;2.30;85.70
70366;DHT22;57787;48.216;12.396;2023-02-13T09:05:17;2.30;85.60
70366;DHT22;57787;48.216;12.396;2023-02-13T09:07:45;2.30;85.00
70366;DHT22;57787;48.216;12.396;2023-02-13T09:10:12;2.30;85.10
70366;DHT22;57787;48.216;12.396;2023-02-13T09:12:43;2.40;85.40
70366;DHT22;57787;48.216;12.396;2023-02-13T09:15:11;2.40;85.20
70366;DHT22;57787;48.216;12.396;2023-02-13T09:17:38;2.50;86.10
70366;DHT22;57787;48.216;12.396;2023-02-13T09:20:06;2.50;85.90
70366;DHT22;57787;48.216;12.396;2023-02-13T09:22:33;2.50;85.00
70366;DHT22;57787;48.216;12.396;2023-02-13T09:25:01;2.50;85.30
70366;DHT22;57787;48.216;12.396;2023-02-13T09:27:30;2.60;85.50
70366;DHT22;57787;48.216;12.396;2023-02-13T09:29:59;2.60;85.00
70366;DHT22;57787;48.216;12.396;2023-02-13T09:32:28;2.60;85.70
70366;DHT22;57787;48.216;12.396;2023-02-13T09:34:56;2.60;85.70
70366;DHT22;57787;48.216;12.396;2023-02-13T09:37:23;2.70;85.90
70366;DHT22;57787;48.216;12.396;2023-02-13T09:39:51;2.80;85.90
70366;DHT22;57787;48.216;12.396;2023-02-13T09:42:23;2.80;85.00
70366;DHT22;57787;48.216;12.396;2023-02-13T09:44:53;2.90;84.80
70366;DHT22;57787;48.216;12.396;2023-02-13T09:49:59;3.00;84.10
70366;DHT22;57787;48.216;12.396;2023-02-13T09:52:32;3.10;84.30
70366;DHT22;57787;48.216;12.396;2023-02-13T09:55:00;3.20;84.00
70366;DHT22;57787;48.216;12.396;2023-02-13T09:57:35;3.20;83.30
70366;DHT22;57787;48.216;12.396;2023-02-13T10:00:09;3.20;83.20
70366;DHT22;57787;48.216;12.396;2023-02-13T10:02:52;3.30;83.90
70366;DHT22;57787;48.216;12.396;2023-02-13T10:15:43;3.40;82.60
70366;DHT22;57787;48.216;12.396;2023-02-13T10:18:15;3.40;82.20
70366;DHT22;57787;48.216;12.396;2023-02-13T10:20:47;3.30;83.30
70366;DHT22;57787;48.216;12.396;2023-02-13T10:23:21;3.30;82.40
70366;DHT22;57787;48.216;12.396;2023-02-13T10:25:53;3.40;81.80
70366;DHT22;57787;48.216;12.396;2023-02-13T10:30:58;3.40;82.80
70366;DHT22;57787;48.216;12.396;2023-02-13T10:33:31;3.40;81.90
70366;DHT22;57787;48.216;12.396;2023-02-13T10:36:11;3.40;83.10
70366;DHT22;57787;48.216;12.396;2023-02-13T10:38:55;3.40;82.70
70366;DHT22;57787;48.216;12.396;2023-02-13T10:44:07;3.60;82.70
70366;DHT22;57787;48.216;12.396;2023-02-13T10:51:59;3.80;82.90
70366;DHT22;57787;48.216;12.396;2023-02-13T10:54:33;3.80;81.70
70366;DHT22;57787;48.216;12.396;2023-02-13T10:57:14;3.80;81.70
70366;DHT22;57787;48.216;12.396;2023-02-13T11:00:04;3.80;81.60
70366;DHT22;57787;48.216;12.396;2023-02-13T11:02:32;4.00;81.50
70366;DHT22;57787;48.216;12.396;2023-02-13T11:05:14;3.90;81.20
70366;DHT22;57787;48.216;12.396;2023-02-13T11:07:44;4.00;82.70
70366;DHT22;57787;48.216;12.396;2023-02-13T11:10:31;4.10;83.00
70366;DHT22;57787;48.216;12.396;2023-02-13T11:13:00;4.00;80.90
70366;DHT22;57787;48.216;12.396;2023-02-13T11:15:41;4.20;82.10
70366;DHT22;57787;48.216;12.396;2023-02-13T11:18:18;4.30;82.20
70366;DHT22;57787;48.216;12.396;2023-02-13T11:20:47;4.30;80.90
70366;DHT22;57787;48.216;12.396;2023-02-13T11:23:27;4.30;80.40
70366;DHT22;57787;48.216;12.396;2023-02-13T11:26:10;4.30;80.60
70366;DHT22;57787;48.216;12.396;2023-02-13T11:28:49;4.30;80.10
70366;DHT22;57787;48.216;12.396;2023-02-13T11:31:25;4.40;81.20
70366;DHT22;57787;48.216;12.396;2023-02-13T11:33:54;4.50;80.80
70366;DHT22;57787;48.216;12.396;2023-02-13T11:36:30;4.50;80.60
70366;DHT22;57787;48.216;12.396;2023-02-13T11:38:59;4.60;80.70
70366;DHT22;57787;48.216;12.396;2023-02-13T11:41:27;4.50;79.50
70366;DHT22;57787;48.216;12.396;2023-02-13T11:43:56;4.50;80.00
70366;DHT22;57787;48.216;12.396;2023-02-13T11:46:28;4.50;79.20
70366;DHT22;57787;48.216;12.396;2023-02-13T11:48:57;4.50;79.80
70366;DHT22;57787;48.216;12.396;2023-02-13T11:54:06;4.60;79.70
70366;DHT22;57787;48.216;12.396;2023-02-13T11:56:48;4.60;80.60
70366;DHT22;57787;48.216;12.396;2023-02-13T11:59:32;4.80;80.60
70366;DHT22;57787;48.216;12.396;2023-02-13T12:04:36;4.90;79.60
70366;DHT22;57787;48.216;12.396;2023-02-13T12:07:04;5.00;80.10
70366;DHT22;57787;48.216;12.396;2023-02-13T12:09:39;5.00;79.10
70366;DHT22;57787;48.216;12.396;2023-02-13T12:12:06;5.00;78.40
70366;DHT22;57787;48.216;12.396;2023-02-13T12:14:41;5.00;79.00
70366;DHT22;57787;48.216;12.396;2023-02-13T12:17:16;5.00;78.50
70366;DHT22;57787;48.216;12.396;2023-02-13T12:19:58;5.00;78.80
70366;DHT22;57787;48.216;12.396;2023-02-13T12:22:30;5.10;78.80
70366;DHT22;57787;48.216;12.396;2023-02-13T12:25:19;5.20;78.90
70366;DHT22;57787;48.216;12.396;2023-02-13T12:33:15;5.20;78.60
70366;DHT22;57787;48.216;12.396;2023-02-13T12:43:38;5.20;78.30
70366;DHT22;57787;48.216;12.396;2023-02-13T12:46:11;5.10;77.40
70366;DHT22;57787;48.216;12.396;2023-02-13T12:54:01;5.20;78.50
70366;DHT22;57787;48.216;12.396;2023-02-13T12:56:42;5.30;77.50
70366;DHT22;57787;48.216;12.396;2023-02-13T12:59:29;5.20;77.80
70366;DHT22;57787;48.216;12.396;2023-02-13T13:14:43;5.00;78.50
70366;DHT22;57787;48.216;12.396;2023-02-13T13:22:37;5.10;79.20
70366;DHT22;57787;48.216;12.396;2023-02-13T13:27:36;5.00;78.70
70366;DHT22;57787;48.216;12.396;2023-02-13T13:30:15;5.00;78.60
70366;DHT22;57787;48.216;12.396;2023-02-13T13:32:44;5.00;79.10
70366;DHT22;57787;48.216;12.396;2023-02-13T13:35:15;5.00;79.10
70366;DHT22;57787;48.216;12.396;2023-02-13T13:40:21;5.20;79.40
70366;DHT22;57787;48.216;12.396;2023-02-13T13:43:06;5.10;78.30
70366;DHT22;57787;48.216;12.396;2023-02-13T13:45:50;5.20;79.10
70366;DHT22;57787;48.216;12.396;2023-02-13T13:51:11;5.30;78.50
70366;DHT22;57787;48.216;12.396;2023-02-13T13:59:53;5.30;78.10
70366;DHT22;57787;48.216;12.396;2023-02-13T14:07:23;5.40;78.00
70366;DHT22;57787;48.216;12.396;2023-02-13T14:09:53;5.40;78.00
70366;DHT22;57787;48.216;12.396;2023-02-13T14:14:53;5.30;78.20
70366;DHT22;57787;48.216;12.396;2023-02-13T14:20:21;5.30;78.50
70366;DHT22;57787;48.216;12.396;2023-02-13T14:22:49;5.30;78.50
70366;DHT22;57787;48.216;12.396;2023-02-13T14:25:23;5.30;78.50
70366;DHT22;57787;48.216;12.396;2023-02-13T14:27:55;5.30;78.10
70366;DHT22;57787;48.216;12.396;2023-02-13T14:30:31;5.20;78.20
70366;DHT22;57787;48.216;12.396;2023-02-13T14:33:07;5.20;78.50
70366;DHT22;57787;48.216;12.396;2023-02-13T14:35:37;5.10;78.90
70366;DHT22;57787;48.216;12.396;2023-02-13T14:38:06;5.10;78.50
70366;DHT22;57787;48.216;12.396;2023-02-13T14:40:50;5.10;78.70
70366;DHT22;57787;48.216;12.396;2023-02-13T14:45:55;5.10;78.80
70366;DHT22;57787;48.216;12.396;2023-02-13T14:48:45;5.20;78.70
70366;DHT22;57787;48.216;12.396;2023-02-13T14:51:21;5.10;78.60
70366;DHT22;57787;48.216;12.396;2023-02-13T14:54:00;5.00;79.10
70366;DHT22;57787;48.216;12.396;2023-02-13T14:56:29;5.00;79.20
70366;DHT22;57787;48.216;12.396;2023-02-13T14:59:07;4.90;79.40
70366;DHT22;57787;48.216;12.396;2023-02-13T15:01:44;4.90;79.30
70366;DHT22;57787;48.216;12.396;2023-02-13T15:04:18;4.80;79.90
70366;DHT22;57787;48.216;12.396;2023-02-13T15:06:47;4.80;79.90
70366;DHT22;57787;48.216;12.396;2023-02-13T15:09:38;4.80;79.90
70366;DHT22;57787;48.216;12.396;2023-02-13T15:12:28;4.80;80.30
70366;DHT22;57787;48.216;12.396;2023-02-13T15:14:56;4.80;79.70
70366;DHT22;57787;48.216;12.396;2023-02-13T15:17:31;4.80;79.90
70366;DHT22;57787;48.216;12.396;2023-02-13T15:20:17;4.80;80.10
70366;DHT22;57787;48.216;12.396;2023-02-13T15:22:47;4.70;80.30
70366;DHT22;57787;48.216;12.396;2023-02-13T15:25:22;4.60;80.30
70366;DHT22;57787;48.216;12.396;2023-02-13T15:27:53;4.60;80.50
70366;DHT22;57787;48.216;12.396;2023-02-13T15:30:22;4.60;80.80
70366;DHT22;57787;48.216;12.396;2023-02-13T15:33:00;4.50;81.10
70366;DHT22;57787;48.216;12.396;2023-02-13T15:35:32;4.50;81.20
70366;DHT22;57787;48.216;12.396;2023-02-13T15:38:17;4.50;81.20
70366;DHT22;57787;48.216;12.396;2023-02-13T15:40:48;4.50;81.10
70366;DHT22;57787;48.216;12.396;2023-02-13T15:43:21;4.40;81.40
70366;DHT22;57787;48.216;12.396;2023-02-13T15:45:49;4.40;81.50
70366;DHT22;57787;48.216;12.396;2023-02-13T15:48:17;4.40;81.80
70366;DHT22;57787;48.216;12.396;2023-02-13T15:50:47;4.30;82.00
70366;DHT22;57787;48.216;12.396;2023-02-13T15:53:15;4.30;82.00
70366;DHT22;57787;48.216;12.396;2023-02-13T15:55:54;4.30;82.20
70366;DHT22;57787;48.216;12.396;2023-02-13T15:58:22;4.30;82.10
70366;DHT22;57787;48.216;12.396;2023-02-13T16:00:51;4.20;82.40
70366;DHT22;57787;48.216;12.396;2023-02-13T16:03:22;4.10;82.50
70366;DHT22;57787;48.216;12.396;2023-02-13T16:05:51;4.10;82.70
70366;DHT22;57787;48.216;12.396;2023-02-13T16:13:36;4.00;83.00
70366;DHT22;57787;48.216;12.396;2023-02-13T16:16:08;3.90;83.10
70366;DHT22;57787;48.216;12.396;2023-02-13T16:18:37;3.90;83.00
70366;DHT22;57787;48.216;12.396;2023-02-13T16:21:07;3.90;83.20
70366;DHT22;57787;48.216;12.396;2023-02-13T16:23:42;3.80;83.50
70366;DHT22;57787;48.216;12.396;2023-02-13T16:26:11;3.80;83.60
70366;DHT22;57787;48.216;12.396;2023-02-13T16:28:40;3.70;83.50
70366;DHT22;57787;48.216;12.396;2023-02-13T16:31:15;3.70;83.50
70366;DHT22;57787;48.216;12.396;2023-02-13T16:33:44;3.70;84.00
70366;DHT22;57787;48.216;12.396;2023-02-13T16:38:44;3.70;84.40
70366;DHT22;57787;48.216;12.396;2023-02-13T16:48:58;3.60;84.60
70366;DHT22;57787;48.216;12.396;2023-02-13T16:51:35;3.50;84.60
70366;DHT22;57787;48.216;12.396;2023-02-13T16:54:05;3.50;84.50
70366;DHT22;57787;48.216;12.396;2023-02-13T17:01:43;3.40;84.70
70366;DHT22;57787;48.216;12.396;2023-02-13T17:04:18;3.40;84.90
70366;DHT22;57787;48.216;12.396;2023-02-13T17:06:47;3.40;85.10
70366;DHT22;57787;48.216;12.396;2023-02-13T17:09:14;3.40;85.30
70366;DHT22;57787;48.216;12.396;2023-02-13T17:11:42;3.40;85.30
70366;DHT22;57787;48.216;12.396;2023-02-13T17:14:16;3.40;85.50
70366;DHT22;57787;48.216;12.396;2023-02-13T17:16:44;3.40;85.40
70366;DHT22;57787;48.216;12.396;2023-02-13T17:19:11;3.40;85.50
70366;DHT22;57787;48.216;12.396;2023-02-13T17:21:39;3.40;85.50
70366;DHT22;57787;48.216;12.396;2023-02-13T17:24:08;3.40;85.50
70366;DHT22;57787;48.216;12.396;2023-02-13T17:26:38;3.30;85.30
70366;DHT22;57787;48.216;12.396;2023-02-13T17:29:06;3.30;85.40
70366;DHT22;57787;48.216;12.396;2023-02-13T17:31:35;3.30;85.30
70366;DHT22;57787;48.216;12.396;2023-02-13T17:34:03;3.30;85.50
70366;DHT22;57787;48.216;12.396;2023-02-13T17:36:35;3.30;85.60
70366;DHT22;57787;48.216;12.396;2023-02-13T17:39:05;3.30;85.50
70366;DHT22;57787;48.216;12.396;2023-02-13T17:41:34;3.20;85.70
70366;DHT22;57787;48.216;12.396;2023-02-13T17:44:04;3.20;86.00
70366;DHT22;57787;48.216;12.396;2023-02-13T17:46:31;3.20;86.10
70366;DHT22;57787;48.216;12.396;2023-02-13T17:49:00;3.20;86.20
70366;DHT22;57787;48.216;12.396;2023-02-13T17:51:27;3.20;86.20
70366;DHT22;57787;48.216;12.396;2023-02-13T17:53:55;3.10;86.10
70366;DHT22;57787;48.216;12.396;2023-02-13T17:56:23;3.20;86.10
70366;DHT22;57787;48.216;12.396;2023-02-13T17:58:51;3.10;86.10
70366;DHT22;57787;48.216;12.396;2023-02-13T18:01:21;3.10;86.20
70366;DHT22;57787;48.216;12.396;2023-02-13T18:03:49;3.10;86.60
70366;DHT22;57787;48.216;12.396;2023-02-13T18:06:18;3.10;86.50
70366;DHT22;57787;48.216;12.396;2023-02-13T18:08:46;3.10;86.50
70366;DHT22;57787;48.216;12.396;2023-02-13T18:11:16;3.00;86.60
70366;DHT22;57787;48.216;12.396;2023-02-13T18:13:43;3.10;86.60
70366;DHT22;57787;48.216;12.396;2023-02-13T18:16:14;3.10;86.60
70366;DHT22;57787;48.216;12.396;2023-02-13T18:18:42;3.00;86.70
70366;DHT22;57787;48.216;12.396;2023-02-13T18:21:09;3.10;86.70
70366;DHT22;57787;48.216;12.396;2023-02-13T18:23:39;3.00;86.90